createdAt,value
2019-02-17T00:00:20.297Z,23.67
2019-02-17T00:02:50.497Z,22.10
2019-02-17T00:05:20.670Z,21.53
2019-02-17T00:07:50.825Z,25.10
2019-02-17T00:10:23.112Z,25.00
2019-02-17T00:12:53.148Z,23.87
2019-02-17T00:15:24.988Z,25.43
2019-02-17T00:17:55.452Z,23.87
2019-02-17T00:20:25.838Z,24.97
2019-02-17T00:22:56.627Z,26.00
2019-02-17T00:25:26.753Z,25.63
2019-02-17T00:27:57.176Z,27.47
2019-02-17T00:30:27.763Z,26.83
2019-02-17T00:32:58.889Z,26.43
2019-02-17T00:35:29.313Z,29.70
2019-02-17T00:37:59.450Z,26.17
2019-02-17T00:40:30.204Z,25.33
2019-02-17T00:43:00.286Z,25.33
2019-02-17T00:45:30.681Z,27.33
2019-02-17T00:48:00.991Z,25.23
2019-02-17T00:50:31.161Z,25.20
2019-02-17T00:53:01.283Z,26.97
2019-02-17T00:55:31.339Z,26.23
2019-02-17T00:58:01.497Z,24.67
2019-02-17T01:00:31.654Z,26.63
2019-02-17T01:03:01.797Z,26.20
2019-02-17T01:05:32.024Z,26.30
2019-02-17T01:08:02.209Z,24.80
2019-02-17T01:10:32.313Z,22.70
2019-02-17T01:13:02.825Z,23.97
2019-02-17T01:15:33.282Z,25.03
2019-02-17T01:18:03.288Z,24.27
2019-02-17T01:20:33.438Z,22.40
2019-02-17T01:23:03.589Z,28.40
2019-02-17T01:25:33.960Z,24.97
2019-02-17T01:28:03.952Z,28.70
2019-02-17T01:30:34.316Z,26.83
2019-02-17T01:33:05.171Z,28.10
2019-02-17T01:35:35.298Z,26.13
2019-02-17T01:38:05.688Z,25.23
2019-02-17T01:40:36.135Z,23.63
2019-02-17T01:43:06.356Z,23.30
2019-02-17T01:45:36.395Z,22.13
2019-02-17T01:48:06.538Z,22.17
2019-02-17T01:50:36.721Z,23.23
2019-02-17T01:53:06.783Z,21.83
2019-02-17T01:55:37.146Z,20.50
2019-02-17T01:58:07.882Z,19.43
2019-02-17T02:00:38.341Z,25.13
2019-02-17T02:03:08.810Z,23.00
2019-02-17T02:05:39.106Z,23.63
2019-02-17T02:08:09.964Z,25.03
2019-02-17T02:10:40.102Z,23.93
2019-02-17T02:13:14.343Z,23.67
2019-02-17T02:15:44.782Z,24.70
2019-02-17T02:18:14.870Z,27.67
2019-02-17T02:20:45.078Z,29.03
2019-02-17T02:23:15.455Z,27.20
2019-02-17T02:25:45.620Z,25.27
2019-02-17T02:28:15.735Z,23.57
2019-02-17T02:30:45.989Z,22.67
2019-02-17T02:33:15.999Z,21.77
2019-02-17T02:35:46.151Z,22.10
2019-02-17T02:38:16.250Z,23.50
2019-02-17T02:40:47.135Z,22.57
2019-02-17T02:43:17.048Z,21.93
2019-02-17T02:45:47.153Z,23.07
2019-02-17T02:48:17.355Z,24.43
2019-02-17T02:50:47.366Z,25.40
2019-02-17T02:53:17.371Z,27.20
2019-02-17T02:56:05.993Z,27.00
2019-02-17T02:58:36.179Z,24.03
2019-02-17T03:01:07.491Z,22.43
2019-02-17T03:03:37.630Z,23.63
2019-02-17T03:06:14.475Z,23.57
2019-02-17T03:08:44.507Z,29.53
2019-02-17T03:11:15.070Z,26.83
2019-02-17T03:13:45.754Z,24.30
2019-02-17T03:16:15.735Z,23.47
2019-02-17T03:18:46.011Z,21.47
2019-02-17T03:21:15.950Z,24.87
2019-02-17T03:23:46.323Z,25.73
2019-02-17T03:26:16.777Z,25.93
2019-02-17T03:28:47.309Z,25.83
2019-02-17T03:31:17.561Z,27.67
2019-02-17T03:33:47.433Z,25.10
2019-02-17T03:36:17.447Z,23.70
2019-02-17T03:38:47.539Z,24.57
2019-02-17T03:41:17.590Z,22.10
2019-02-17T03:43:50.825Z,22.23
2019-02-17T03:46:20.803Z,21.70
2019-02-17T03:48:50.890Z,18.63
2019-02-17T03:51:20.806Z,21.70
2019-02-17T03:53:50.803Z,26.40
2019-02-17T03:56:20.914Z,24.10
2019-02-17T03:58:51.021Z,24.33
2019-02-17T04:01:21.007Z,22.77
2019-02-17T04:03:51.010Z,25.00
2019-02-17T04:06:21.215Z,28.33
2019-02-17T04:08:51.249Z,26.63
2019-02-17T04:11:21.447Z,28.13
2019-02-17T04:13:51.541Z,25.60
2019-02-17T04:16:21.783Z,26.47
2019-02-17T04:18:51.884Z,27.43
2019-02-17T04:21:21.876Z,26.50
2019-02-17T04:23:52.013Z,23.47
2019-02-17T04:26:22.301Z,24.17
2019-02-17T04:28:52.158Z,21.43
2019-02-17T04:31:22.213Z,21.37
2019-02-17T04:33:52.402Z,21.67
2019-02-17T04:36:22.488Z,24.80
2019-02-17T04:38:52.663Z,27.63
2019-02-17T04:41:23.262Z,27.90
2019-02-17T04:43:53.419Z,30.03
2019-02-17T04:46:23.341Z,29.80
2019-02-17T04:48:53.286Z,31.60
2019-02-17T04:51:23.816Z,27.77
2019-02-17T04:53:53.731Z,25.73
2019-02-17T04:56:23.765Z,29.30
2019-02-17T04:58:55.538Z,26.80
2019-02-17T05:01:25.721Z,26.30
2019-02-17T05:03:57.065Z,26.13
2019-02-17T05:06:27.073Z,24.77
2019-02-17T05:08:57.294Z,23.30
2019-02-17T05:11:27.760Z,24.90
2019-02-17T05:13:59.056Z,25.00
2019-02-17T05:16:29.030Z,29.47
2019-02-17T05:18:59.799Z,29.53
2019-02-17T05:21:29.937Z,28.23
2019-02-17T05:24:00.911Z,30.07
2019-02-17T05:26:31.108Z,29.17
2019-02-17T05:29:01.034Z,28.20
2019-02-17T05:31:31.192Z,27.97
2019-02-17T05:34:01.566Z,28.60
2019-02-17T05:36:31.694Z,27.10
2019-02-17T05:39:02.079Z,29.43
2019-02-17T05:41:32.253Z,26.03
2019-02-17T05:44:02.774Z,27.63
2019-02-17T05:46:32.746Z,26.53
2019-02-17T05:49:02.696Z,26.83
2019-02-17T05:51:33.297Z,23.57
2019-02-17T05:54:03.412Z,24.90
2019-02-17T05:56:33.372Z,26.03
2019-02-17T05:59:03.227Z,26.30
2019-02-17T06:01:33.213Z,27.40
2019-02-17T06:04:03.097Z,24.10
2019-02-17T06:06:33.093Z,27.63
2019-02-17T06:09:04.870Z,24.00
2019-02-17T06:11:34.970Z,25.33
2019-02-17T06:14:04.993Z,27.10
2019-02-17T06:16:35.552Z,24.80
2019-02-17T06:19:05.434Z,24.53
2019-02-17T06:21:35.672Z,23.73
2019-02-17T06:24:05.698Z,24.97
2019-02-17T06:26:35.715Z,24.40
2019-02-17T06:29:05.734Z,24.10
2019-02-17T06:31:35.633Z,24.83
2019-02-17T06:34:05.541Z,24.80
2019-02-17T06:36:36.159Z,24.77
2019-02-17T06:39:07.066Z,23.43
2019-02-17T06:41:37.082Z,22.60
2019-02-17T06:44:08.453Z,22.43
2019-02-17T06:46:51.294Z,26.57
2019-02-17T06:49:22.825Z,28.23
2019-02-17T06:51:53.076Z,28.00
2019-02-17T06:54:23.282Z,32.17
2019-02-17T06:56:59.334Z,33.57
2019-02-17T06:59:29.805Z,30.23
2019-02-17T07:02:00.370Z,29.10
2019-02-17T07:04:49.823Z,28.13
2019-02-17T07:07:20.078Z,24.37
2019-02-17T07:09:50.198Z,24.90
2019-02-17T07:12:20.496Z,22.83
2019-02-17T07:14:50.886Z,21.77
2019-02-17T07:17:21.111Z,21.00
2019-02-17T07:19:51.552Z,21.67
2019-02-17T07:22:22.225Z,20.63
2019-02-17T07:24:52.398Z,20.83
2019-02-17T07:27:22.525Z,21.37
2019-02-17T07:29:53.109Z,22.10
2019-02-17T07:32:23.168Z,20.57
2019-02-17T07:34:53.745Z,20.60
2019-02-17T07:37:33.015Z,20.03
2019-02-17T07:39:56.095Z,19.43
2019-02-17T07:42:26.272Z,18.93
2019-02-17T07:44:56.487Z,17.77
2019-02-17T07:47:26.648Z,17.30
2019-02-17T07:49:56.727Z,16.40
2019-02-17T07:52:27.516Z,15.53
2019-02-17T07:54:57.622Z,16.97
2019-02-17T07:57:28.182Z,15.10
2019-02-17T07:59:58.353Z,14.90
2019-02-17T08:02:28.759Z,15.33
2019-02-17T08:04:59.285Z,14.77
2019-02-17T08:07:29.478Z,14.30
2019-02-17T08:10:00.820Z,13.57
2019-02-17T08:12:31.086Z,14.20
2019-02-17T08:15:01.080Z,13.80
2019-02-17T08:17:31.039Z,14.17
2019-02-17T08:20:02.123Z,15.27
2019-02-17T08:22:32.364Z,13.97
2019-02-17T08:25:02.710Z,14.63
2019-02-17T08:27:33.769Z,13.33
2019-02-17T08:30:04.198Z,16.60
2019-02-17T08:32:34.778Z,13.73
2019-02-17T08:35:05.094Z,12.63
2019-02-17T08:37:35.397Z,12.57
2019-02-17T08:40:06.308Z,13.77
2019-02-17T08:42:36.329Z,13.53
2019-02-17T08:45:07.063Z,13.63
2019-02-17T08:47:37.261Z,13.80
2019-02-17T08:50:09.149Z,13.18
2019-02-17T08:52:39.169Z,13.05
2019-02-17T08:55:09.790Z,12.53
2019-02-17T08:57:39.918Z,12.85
2019-02-17T09:00:11.719Z,12.70
2019-02-17T09:02:42.165Z,12.65
2019-02-17T09:05:12.923Z,12.95
2019-02-17T09:07:43.054Z,13.13
2019-02-17T09:10:13.323Z,11.60
2019-02-17T09:12:43.425Z,12.80
2019-02-17T09:15:14.032Z,13.43
2019-02-17T09:17:44.193Z,13.45
2019-02-17T09:20:14.421Z,13.53
2019-02-17T09:22:44.549Z,11.20
2019-02-17T09:25:14.782Z,13.05
2019-02-17T09:27:45.955Z,14.10
2019-02-17T09:30:16.698Z,12.65
2019-02-17T09:32:47.000Z,13.08
2019-02-17T09:35:17.250Z,14.25
2019-02-17T09:37:47.500Z,14.38
2019-02-17T09:40:17.710Z,13.75
2019-02-17T09:42:48.323Z,14.25
2019-02-17T09:45:18.527Z,15.72
2019-02-17T09:47:49.334Z,14.95
2019-02-17T09:50:19.619Z,13.62
2019-02-17T09:52:49.654Z,14.78
2019-02-17T09:55:20.098Z,13.30
2019-02-17T09:57:50.319Z,14.38
2019-02-17T10:00:22.601Z,13.70
2019-02-17T10:02:53.497Z,15.93
2019-02-17T10:05:23.643Z,14.75
2019-02-17T10:07:53.579Z,15.20
2019-02-17T10:10:23.760Z,14.58
2019-02-17T10:12:54.325Z,15.60
2019-02-17T10:15:24.515Z,15.98
2019-02-17T10:17:54.556Z,16.15
2019-02-17T10:20:24.739Z,15.63
2019-02-17T10:22:54.767Z,14.47
2019-02-17T10:25:24.845Z,15.32
2019-02-17T10:27:54.972Z,14.58
2019-02-17T10:30:25.013Z,14.80
2019-02-17T10:32:55.099Z,13.85
2019-02-17T10:35:25.390Z,14.30
2019-02-17T10:37:55.386Z,14.35
2019-02-17T10:40:25.907Z,14.40
2019-02-17T10:42:55.835Z,14.45
2019-02-17T10:45:26.334Z,14.15
2019-02-17T10:47:57.488Z,15.68
2019-02-17T10:50:27.622Z,14.43
2019-02-17T10:52:57.750Z,13.78
2019-02-17T10:55:27.684Z,14.73
2019-02-17T10:57:57.964Z,14.85
2019-02-17T11:00:29.779Z,16.57
2019-02-17T11:03:09.799Z,14.43
2019-02-17T11:05:40.272Z,17.65
2019-02-17T11:08:10.531Z,16.90
2019-02-17T11:10:41.015Z,18.10
2019-02-17T11:13:11.053Z,18.23
2019-02-17T11:15:41.440Z,17.35
2019-02-17T11:18:11.945Z,20.00
2019-02-17T11:20:42.097Z,20.10
2019-02-17T11:23:13.822Z,18.95
2019-02-17T11:25:44.137Z,19.55
2019-02-17T11:28:14.339Z,20.00
2019-02-17T11:30:44.381Z,18.30
2019-02-17T11:33:19.665Z,17.57
2019-02-17T11:35:49.625Z,18.90
2019-02-17T11:38:20.415Z,18.23
2019-02-17T11:40:50.460Z,18.57
2019-02-17T11:43:20.606Z,18.97
2019-02-17T11:45:51.274Z,18.50
2019-02-17T11:48:21.403Z,18.47
2019-02-17T11:50:51.791Z,17.97
2019-02-17T11:53:22.018Z,18.80
2019-02-17T11:55:52.275Z,18.70
2019-02-17T11:58:22.147Z,19.00
2019-02-17T12:00:52.163Z,19.53
2019-02-17T12:03:22.134Z,19.87
2019-02-17T12:05:52.657Z,19.80
2019-02-17T12:08:22.720Z,19.60
2019-02-17T12:10:54.295Z,19.03
2019-02-17T12:13:25.113Z,18.83
2019-02-17T12:15:55.239Z,18.60
2019-02-17T12:18:25.301Z,20.70
2019-02-17T12:21:04.411Z,19.47
2019-02-17T12:23:38.628Z,19.37
2019-02-17T12:26:39.878Z,19.73
2019-02-17T12:29:19.576Z,18.20
2019-02-17T12:31:50.218Z,21.00
2019-02-17T12:34:21.017Z,19.93
2019-02-17T12:36:51.133Z,20.00
2019-02-17T12:39:21.620Z,19.20
2019-02-17T12:41:52.128Z,19.73
2019-02-17T12:44:22.262Z,19.90
2019-02-17T12:46:52.588Z,19.43
2019-02-17T12:49:22.775Z,19.50
2019-02-17T12:51:52.848Z,19.07
2019-02-17T12:54:29.117Z,18.57
2019-02-17T12:56:54.702Z,17.60
2019-02-17T12:59:25.443Z,17.77
2019-02-17T13:01:55.985Z,18.93
2019-02-17T13:04:26.028Z,18.47
2019-02-17T13:06:55.987Z,18.30
2019-02-17T13:09:26.528Z,17.97
2019-02-17T13:11:56.968Z,17.00
2019-02-17T13:14:27.309Z,16.80
2019-02-17T13:16:57.253Z,16.13
2019-02-17T13:19:27.466Z,17.23
2019-02-17T13:21:57.507Z,17.77
2019-02-17T13:24:27.872Z,18.27
2019-02-17T13:26:58.293Z,18.07
2019-02-17T13:29:28.573Z,15.83
2019-02-17T13:31:59.035Z,16.40
2019-02-17T13:34:29.562Z,18.37
2019-02-17T13:36:59.775Z,16.07
2019-02-17T13:39:29.715Z,18.63
2019-02-17T13:42:00.342Z,18.50
2019-02-17T13:44:30.937Z,17.07
2019-02-17T13:47:01.768Z,18.27
2019-02-17T13:49:32.325Z,17.60
2019-02-17T13:52:02.489Z,18.00
2019-02-17T13:54:33.302Z,18.57
2019-02-17T13:57:03.340Z,18.13
2019-02-17T13:59:33.512Z,16.83
2019-02-17T14:02:03.528Z,17.53
2019-02-17T14:04:34.046Z,17.73
2019-02-17T14:07:04.242Z,17.30
2019-02-17T14:09:34.332Z,17.20
2019-02-17T14:12:04.459Z,17.20
2019-02-17T14:14:34.764Z,18.53
2019-02-17T14:17:05.662Z,17.53
2019-02-17T14:19:35.727Z,18.03
2019-02-17T14:22:05.881Z,17.83
2019-02-17T14:24:36.039Z,18.03
2019-02-17T14:27:06.536Z,18.10
2019-02-17T14:29:36.531Z,19.30
2019-02-17T14:32:07.306Z,17.37
2019-02-17T14:34:37.294Z,18.27
2019-02-17T14:37:08.791Z,16.83
2019-02-17T14:39:38.949Z,17.90
2019-02-17T14:42:09.245Z,16.60
2019-02-17T14:44:39.478Z,16.53
2019-02-17T14:47:09.868Z,16.33
2019-02-17T14:49:40.066Z,17.60
2019-02-17T14:52:10.573Z,16.47
2019-02-17T14:54:41.236Z,16.70
2019-02-17T14:57:11.591Z,17.57
2019-02-17T14:59:42.052Z,18.30
2019-02-17T15:02:12.344Z,16.43
2019-02-17T15:04:42.680Z,16.23
2019-02-17T15:07:13.264Z,16.40
2019-02-17T15:09:43.432Z,17.43
2019-02-17T15:12:13.740Z,16.37
2019-02-17T15:14:44.128Z,16.33
2019-02-17T15:19:55.674Z,17.83
2019-02-17T15:22:26.079Z,16.23
2019-02-17T15:24:56.116Z,17.17
2019-02-17T15:27:26.496Z,16.87
2019-02-17T15:29:56.588Z,18.03
2019-02-17T15:32:26.776Z,18.70
2019-02-17T15:34:57.926Z,22.80
2019-02-17T15:37:28.096Z,19.70
2019-02-17T15:39:58.310Z,20.93
2019-02-17T15:42:28.522Z,18.77
2019-02-17T15:44:58.771Z,17.80
2019-02-17T15:47:29.476Z,16.87
2019-02-17T15:50:00.409Z,18.83
2019-02-17T15:52:31.090Z,17.30
2019-02-17T15:55:01.183Z,15.53
2019-02-17T15:57:31.567Z,16.37
2019-02-17T16:00:01.796Z,17.57
2019-02-17T16:02:32.034Z,16.70
2019-02-17T16:05:02.548Z,16.90
2019-02-17T16:07:33.235Z,16.73
2019-02-17T16:10:03.958Z,16.43
2019-02-17T16:12:34.255Z,15.83
2019-02-17T16:15:04.655Z,16.70
2019-02-17T16:17:34.948Z,14.03
2019-02-17T16:20:06.961Z,14.93
2019-02-17T16:22:38.666Z,16.60
2019-02-17T16:25:08.713Z,14.53
2019-02-17T16:27:39.263Z,13.87
2019-02-17T16:30:12.397Z,13.93
2019-02-17T16:32:42.905Z,13.63
2019-02-17T16:35:12.977Z,12.87
2019-02-17T16:37:43.038Z,13.60
2019-02-17T16:40:13.578Z,17.27
2019-02-17T16:42:43.768Z,18.47
2019-02-17T16:45:14.517Z,16.73
2019-02-17T16:47:45.143Z,17.20
2019-02-17T16:50:17.499Z,17.30
2019-02-17T16:52:48.069Z,14.30
2019-02-17T16:55:18.490Z,16.47
2019-02-17T16:57:48.578Z,17.27
2019-02-17T17:00:24.504Z,16.90
2019-02-17T17:02:54.559Z,16.37
2019-02-17T17:05:25.046Z,16.90
2019-02-17T17:07:55.329Z,17.47
2019-02-17T17:10:25.665Z,16.40
2019-02-17T17:12:56.168Z,17.77
2019-02-17T17:15:26.986Z,16.67
2019-02-17T17:17:57.008Z,15.57
2019-02-17T17:20:27.031Z,14.47
2019-02-17T17:22:58.012Z,15.37
2019-02-17T17:25:29.492Z,14.27
2019-02-17T17:27:59.838Z,14.83
2019-02-17T17:30:29.953Z,15.60
2019-02-17T17:33:00.572Z,14.67
2019-02-17T17:35:30.703Z,15.10
2019-02-17T17:38:00.889Z,14.83
2019-02-17T17:40:31.069Z,14.53
2019-02-17T17:43:02.109Z,13.40
2019-02-17T17:45:32.252Z,13.17
2019-02-17T17:48:02.250Z,15.43
2019-02-17T17:50:32.546Z,16.63
2019-02-17T17:53:03.032Z,17.57
2019-02-17T17:55:33.099Z,18.00
2019-02-17T17:58:03.351Z,21.40
2019-02-17T18:00:34.942Z,18.17
2019-02-17T18:03:05.414Z,17.07
2019-02-17T18:05:35.348Z,18.40
2019-02-17T18:08:05.363Z,17.57
2019-02-17T18:10:35.229Z,16.90
2019-02-17T18:13:05.272Z,16.53
2019-02-17T18:15:35.396Z,16.20
2019-02-17T18:18:05.353Z,23.33
2019-02-17T18:20:35.416Z,20.63
2019-02-17T18:23:05.748Z,19.43
2019-02-17T18:25:35.993Z,23.93
2019-02-17T18:28:05.887Z,20.03
2019-02-17T18:30:36.099Z,23.63
2019-02-17T18:33:07.421Z,58.33
2019-02-17T18:35:37.498Z,84.13
2019-02-17T18:38:07.416Z,50.83
2019-02-17T18:40:44.621Z,45.20
2019-02-17T18:43:09.419Z,35.03
2019-02-17T18:45:39.441Z,34.97
2019-02-17T18:48:09.651Z,35.43
2019-02-17T18:50:39.990Z,33.40
2019-02-17T18:53:10.019Z,34.27
2019-02-17T18:55:40.666Z,33.23
2019-02-17T18:58:10.518Z,36.83
2019-02-17T19:00:40.447Z,35.80
2019-02-17T19:03:10.404Z,39.33
2019-02-17T19:05:40.389Z,35.17
2019-02-17T19:08:10.556Z,33.87
2019-02-17T19:10:40.586Z,31.47
2019-02-17T19:13:10.994Z,26.03
2019-02-17T19:15:41.843Z,24.63
2019-02-17T19:18:12.049Z,27.30
2019-02-17T19:20:42.131Z,27.90
2019-02-17T19:23:12.070Z,23.77
2019-02-17T19:25:42.086Z,27.07
2019-02-17T19:28:12.521Z,24.63
2019-02-17T19:30:42.358Z,30.10
2019-02-17T19:33:12.938Z,31.03
2019-02-17T19:35:42.865Z,37.33
2019-02-17T19:38:12.988Z,38.97
2019-02-17T19:40:43.315Z,34.07
2019-02-17T19:43:13.463Z,29.77
2019-02-17T19:45:43.523Z,27.70
2019-02-17T19:48:13.530Z,27.67
2019-02-17T19:50:43.809Z,28.03
2019-02-17T19:53:13.988Z,27.97
2019-02-17T19:55:43.891Z,27.57
2019-02-17T19:58:13.816Z,23.73
2019-02-17T20:00:45.421Z,21.87
2019-02-17T20:03:33.276Z,23.03
2019-02-17T20:06:04.141Z,19.63
2019-02-17T20:08:34.323Z,20.43
2019-02-17T20:11:04.381Z,22.67
2019-02-17T20:13:34.343Z,21.40
2019-02-17T20:16:04.686Z,21.83
2019-02-17T20:18:35.054Z,20.93
2019-02-17T20:21:05.214Z,24.13
2019-02-17T20:23:35.271Z,24.47
2019-02-17T20:26:05.196Z,23.87
2019-02-17T20:28:43.053Z,22.30
2019-02-17T20:31:07.158Z,22.80
2019-02-17T20:33:37.047Z,20.93
2019-02-17T20:36:07.074Z,29.40
2019-02-17T20:38:36.998Z,29.00
2019-02-17T20:41:06.986Z,26.33
2019-02-17T20:43:37.950Z,24.53
2019-02-17T20:46:07.920Z,23.73
2019-02-17T20:48:37.803Z,23.37
2019-02-17T20:51:07.666Z,25.10
2019-02-17T20:53:37.797Z,26.00
2019-02-17T20:56:08.008Z,27.10
2019-02-17T20:58:38.029Z,27.07
2019-02-17T21:01:08.189Z,24.77
2019-02-17T21:03:38.396Z,24.63
2019-02-17T21:06:12.912Z,26.10
2019-02-17T21:08:41.074Z,29.10
2019-02-17T21:11:11.224Z,26.57
2019-02-17T21:13:41.189Z,26.17
2019-02-17T21:16:11.203Z,26.73
2019-02-17T21:18:41.206Z,26.07
2019-02-17T21:21:11.279Z,25.43
2019-02-17T21:23:41.507Z,27.50
2019-02-17T21:26:11.552Z,27.70
2019-02-17T21:28:41.441Z,28.43
2019-02-17T21:31:12.250Z,30.90
2019-02-17T21:33:42.373Z,27.73
2019-02-17T21:36:22.575Z,27.83
2019-02-17T21:38:45.430Z,26.70
2019-02-17T21:41:15.489Z,24.93
2019-02-17T21:43:45.368Z,25.00
2019-02-17T21:46:15.336Z,25.70
2019-02-17T21:48:45.434Z,23.20
2019-02-17T21:51:15.534Z,21.47
2019-02-17T21:53:46.108Z,23.40
2019-02-17T21:56:16.122Z,23.47
2019-02-17T21:58:46.446Z,28.00
2019-02-17T22:01:16.484Z,27.03
2019-02-17T22:03:47.859Z,25.47
2019-02-17T22:06:17.895Z,25.27
2019-02-17T22:08:48.402Z,24.00
2019-02-17T22:11:18.708Z,21.50
2019-02-17T22:13:48.610Z,21.37
2019-02-17T22:16:20.255Z,22.77
2019-02-17T22:18:51.143Z,21.67
2019-02-17T22:21:20.995Z,21.30
2019-02-17T22:23:51.281Z,20.57
2019-02-17T22:26:21.395Z,19.17
2019-02-17T22:28:51.820Z,19.43
2019-02-17T22:31:22.161Z,20.33
2019-02-17T22:33:52.179Z,21.43
2019-02-17T22:36:22.500Z,21.87
2019-02-17T22:38:52.567Z,21.23
2019-02-17T22:41:22.695Z,20.63
2019-02-17T22:43:52.599Z,22.57
2019-02-17T22:46:23.512Z,22.40
2019-02-17T22:48:53.709Z,23.17
2019-02-17T22:51:23.735Z,20.57
2019-02-17T22:53:53.876Z,22.63
2019-02-17T22:56:24.170Z,21.93
2019-02-17T22:58:54.221Z,19.90
2019-02-17T23:01:29.228Z,20.07
2019-02-17T23:03:59.916Z,21.83
2019-02-17T23:06:30.499Z,22.80
2019-02-17T23:09:00.565Z,21.77
2019-02-17T23:11:30.702Z,24.10
2019-02-17T23:14:00.926Z,25.83
2019-02-17T23:16:30.841Z,28.83
2019-02-17T23:19:01.275Z,25.20
2019-02-17T23:21:31.276Z,20.13
2019-02-17T23:24:01.772Z,25.40
2019-02-17T23:26:31.766Z,22.40
2019-02-17T23:29:02.060Z,20.53
2019-02-17T23:31:32.120Z,21.63
2019-02-17T23:34:02.111Z,21.73
2019-02-17T23:36:32.247Z,22.50
2019-02-17T23:39:02.415Z,21.63
2019-02-17T23:41:32.498Z,21.53
2019-02-17T23:44:02.876Z,20.63
2019-02-17T23:46:32.755Z,21.47
2019-02-17T23:49:02.978Z,21.87
2019-02-17T23:51:33.517Z,20.87
2019-02-17T23:54:03.931Z,21.20
2019-02-17T23:56:34.276Z,22.87
2019-02-17T23:59:04.552Z,23.97
